Dillon, CO

9:03 PM MST on January 22, 2017 (GMT -0700)
Copper Mountain

Weather History for KCCU - April, 2013

Change the Weather History Date:

Monday, April 29, 2013

  Actual Average Record
Temperature  
Mean Temperature 40 °F -  
Max Temperature 46 °F - 53 °F (2007)
Min Temperature 33 °F - 14 °F (2011)
Degree Days  
Heating Degree Days 26    
Month to date heating degree days  
Moisture  
Dew Point 17 °F    
Average Humidity 40    
Maximum Humidity 75    
Minimum Humidity 23    
Precipitation  
Precipitation 0.00 in - 0.03 in (2005)
Sea Level Pressure  
Sea Level Pressure 30.16 in    
Wind  
Wind Speed 24 mph (West)    
Max Wind Speed 41 mph    
Max Gust Speed 54 mph    
Visibility 10 miles    
Events Snow    
T = Trace of Precipitation, MM = Missing Value Source: NWS Daily Summary

Daily Weather History Graph

Daily Weather History Graph

Search for Another Location

Airport or City:

Trip Planner

Search our weather history database for the weather conditions in past years. The results will help you decide how hot, cold, wet, or windy it might be!

Date:

Astronomy

Apr. 29, 2013 Rise Set
Actual Time 6:07 AM MDT 7:56 PM MDT
Civil Twilight 5:38 AM MDT 8:25 PM MDT
Nautical Twilight 5:03 AM MDT 9:00 PM MDT
Astronomical Twilight 4:26 AM MDT 9:38 PM MDT
Moon No Moon Rise 9:32 AM MDT (4/29)
Length of Visible Light 14h 46m
Length of Day
13h 48m
Waning Gibbous, 79% of the Moon is Illuminated
Apr 29
Waning Gibbous
May 2
Last Quarter
May 9
New
May 17
First Quarter
May 24
Full

Hourly Weather History & Observations

Time (MDT) Temp. Windchill Dew Point Humidity Pressure Visibility Wind Dir Wind Speed Gust Speed Precip Events Conditions
12:12 AM 37.4 °F 28.5 °F 24.8 °F 60% 30.30 in 10.0 mi West 15.0 mph - N/A   Overcast
12:32 AM 35.6 °F 23.7 °F 26.6 °F 70% 30.30 in 4.0 mi West 24.2 mph 27.6 mph N/A Snow Light Snow
12:52 AM 33.8 °F 26.4 °F 26.6 °F 75% 30.29 in 5.0 mi WSW 9.2 mph - N/A Snow Light Snow
1:12 AM 35.6 °F 25.5 °F 24.8 °F 65% 30.28 in 10.0 mi West 17.3 mph 24.2 mph N/A   Mostly Cloudy
1:32 AM 35.6 °F 27.1 °F 26.6 °F 70% 30.28 in 10.0 mi West 12.7 mph 25.3 mph N/A   Mostly Cloudy
1:52 AM 35.6 °F 24.5 °F 24.8 °F 65% 30.27 in 10.0 mi West 20.7 mph - N/A   Overcast
2:12 AM 35.6 °F 27.1 °F 24.8 °F 65% 30.25 in 10.0 mi WSW 12.7 mph 23.0 mph N/A   Overcast
2:32 AM 35.6 °F 26.6 °F 24.8 °F 65% 30.24 in 10.0 mi West 13.8 mph 24.2 mph N/A   Mostly Cloudy
2:52 AM 33.8 °F 22.2 °F 23.0 °F 65% 30.22 in 10.0 mi West 20.7 mph 25.3 mph N/A   Scattered Clouds
3:07 AM 35.6 °F 24.2 °F 21.2 °F 56% 30.22 in 10.0 mi WSW 21.9 mph 34.5 mph N/A   Clear
4:32 AM 35.6 °F 24.2 °F 21.2 °F 56% 30.21 in 10.0 mi West 21.9 mph 27.6 mph N/A   Mostly Cloudy
4:52 AM 35.6 °F 24.8 °F 21.2 °F 56% 30.20 in 10.0 mi West 19.6 mph 25.3 mph N/A   Mostly Cloudy
5:12 AM 37.4 °F 24.6 °F 21.2 °F 52% 30.18 in 10.0 mi West 32.2 mph 44.9 mph N/A   Mostly Cloudy
5:32 AM 35.6 °F 22.7 °F 21.2 °F 56% 30.18 in 10.0 mi West 28.8 mph 33.4 mph N/A   Mostly Cloudy
5:52 AM 37.4 °F 25.6 °F 21.2 °F 52% 30.18 in 10.0 mi West 26.5 mph 36.8 mph N/A   Scattered Clouds
6:12 AM 35.6 °F 23.0 °F 21.2 °F 56% 30.17 in 10.0 mi West 27.6 mph 41.4 mph N/A   Scattered Clouds
6:32 AM 35.6 °F 23.0 °F 21.2 °F 56% 30.18 in 10.0 mi West 27.6 mph 35.7 mph N/A   Scattered Clouds
6:52 AM 35.6 °F 23.0 °F 21.2 °F 56% 30.18 in 10.0 mi West 27.6 mph 38.0 mph N/A   Scattered Clouds
7:12 AM 35.6 °F 22.7 °F 21.2 °F 56% 30.18 in 10.0 mi West 28.8 mph 41.4 mph N/A   Scattered Clouds
7:32 AM 37.4 °F 25.6 °F 21.2 °F 52% 30.18 in 10.0 mi West 26.5 mph 39.1 mph N/A   Clear
7:52 AM 37.4 °F 24.4 °F 21.2 °F 52% 30.17 in 10.0 mi West 33.4 mph 43.7 mph N/A   Clear
8:12 AM 37.4 °F 27.2 °F 21.2 °F 52% 30.18 in 10.0 mi West 19.6 mph 39.1 mph N/A   Clear
8:32 AM 37.4 °F 24.8 °F 21.2 °F 52% 30.18 in 10.0 mi West 31.1 mph 39.1 mph N/A   Clear
8:52 AM 37.4 °F 23.6 °F 19.4 °F 48% 30.17 in 10.0 mi West 38.0 mph 43.7 mph N/A   Clear
9:12 AM 37.4 °F 26.1 °F 19.4 °F 48% 30.18 in 10.0 mi West 24.2 mph 39.1 mph N/A   Clear
9:32 AM 37.4 °F 24.4 °F 19.4 °F 48% 30.17 in 10.0 mi West 33.4 mph 43.7 mph N/A   Clear
9:52 AM 41.0 °F 29.3 °F 19.4 °F 42% 30.17 in 10.0 mi West 33.4 mph 44.9 mph N/A   Clear
10:12 AM 41.0 °F 29.8 °F 19.4 °F 42% 30.18 in 10.0 mi West 29.9 mph 40.3 mph N/A   Clear
10:32 AM 41.0 °F 29.8 °F 17.6 °F 39% 30.17 in 10.0 mi West 29.9 mph 39.1 mph N/A   Clear
10:52 AM 41.0 °F 30.5 °F 17.6 °F 39% 30.18 in 10.0 mi West 26.5 mph 38.0 mph N/A   Clear
11:12 AM 42.8 °F 32.3 °F 17.6 °F 36% 30.17 in 10.0 mi West 29.9 mph 39.1 mph N/A   Clear
11:32 AM 44.6 °F 35.7 °F 14.0 °F 29% 30.18 in 10.0 mi West 24.2 mph 39.1 mph N/A   Clear
11:52 AM 44.6 °F 34.7 °F 14.0 °F 29% 30.18 in 10.0 mi West 29.9 mph 40.3 mph N/A   Clear
12:12 PM 44.6 °F 36.4 °F 14.0 °F 29% 30.18 in 10.0 mi West 20.7 mph 36.8 mph N/A   Clear
12:32 PM 44.6 °F 36.4 °F 12.2 °F 27% 30.17 in 10.0 mi West 20.7 mph 43.7 mph N/A   Clear
12:52 PM 44.6 °F 36.6 °F 10.4 °F 25% 30.17 in 10.0 mi WNW 19.6 mph 40.3 mph N/A   Clear
1:12 PM 46.4 °F 40.4 °F 12.2 °F 25% 30.17 in 10.0 mi West 13.8 mph 26.5 mph N/A   Clear
1:32 PM 44.6 °F 35.1 °F 14.0 °F 29% 30.17 in 10.0 mi West 27.6 mph 36.8 mph N/A   Clear
1:52 PM 44.6 °F 36.4 °F 14.0 °F 29% 30.16 in 10.0 mi West 20.7 mph 35.7 mph N/A   Clear
2:12 PM 46.4 °F 39.5 °F 14.0 °F 27% 30.16 in 10.0 mi West 17.3 mph 34.5 mph N/A   Clear
2:32 PM 46.4 °F 38.3 °F 12.2 °F 25% 30.15 in 10.0 mi WNW 23.0 mph 32.2 mph N/A   Scattered Clouds
2:52 PM 46.4 °F 37.5 °F 12.2 °F 25% 30.15 in 10.0 mi West 27.6 mph 39.1 mph N/A   Clear
3:12 PM 46.4 °F 37.7 °F 12.2 °F 25% 30.15 in 10.0 mi West 26.5 mph 35.7 mph N/A   Clear
3:32 PM 46.4 °F 37.9 °F 15.8 °F 29% 30.13 in 10.0 mi West 25.3 mph 35.7 mph N/A   Scattered Clouds
3:52 PM 46.4 °F 38.1 °F 12.2 °F 25% 30.12 in 10.0 mi West 24.2 mph 39.1 mph N/A   Scattered Clouds
4:12 PM 46.4 °F 36.1 °F 10.4 °F 23% 30.10 in 10.0 mi West 38.0 mph 44.9 mph N/A   Clear
4:32 PM 46.4 °F 37.9 °F 10.4 °F 23% 30.12 in 10.0 mi West 25.3 mph 46.0 mph N/A   Clear
4:52 PM 46.4 °F 38.1 °F 14.0 °F 27% 30.12 in 10.0 mi WSW 24.2 mph 35.7 mph N/A   Scattered Clouds
5:12 PM 46.4 °F 38.7 °F 14.0 °F 27% 30.12 in 10.0 mi WSW 20.7 mph 38.0 mph N/A   Scattered Clouds
5:32 PM 46.4 °F 38.3 °F 14.0 °F 27% 30.11 in 10.0 mi West 23.0 mph 34.5 mph N/A   Clear
5:52 PM 44.6 °F 35.9 °F 14.0 °F 29% 30.11 in 10.0 mi WSW 23.0 mph 33.4 mph N/A   Clear
6:12 PM 44.6 °F 35.5 °F 14.0 °F 29% 30.11 in 10.0 mi WSW 25.3 mph 39.1 mph N/A   Clear
6:32 PM 44.6 °F 37.2 °F 14.0 °F 29% 30.12 in 10.0 mi WSW 17.3 mph 26.5 mph N/A   Clear
6:52 PM 44.6 °F 35.7 °F 14.0 °F 29% 30.10 in 10.0 mi West 24.2 mph 35.7 mph N/A   Clear
7:12 PM 44.6 °F 35.1 °F 14.0 °F 29% 30.09 in 10.0 mi WSW 27.6 mph 35.7 mph N/A   Clear
7:32 PM 44.6 °F 35.9 °F 14.0 °F 29% 30.09 in 10.0 mi WSW 23.0 mph 36.8 mph N/A   Clear
7:52 PM 42.8 °F 32.1 °F 14.0 °F 31% 30.08 in 10.0 mi WSW 31.1 mph 48.3 mph N/A   Clear
8:12 PM 42.8 °F 31.4 °F 12.2 °F 29% 30.08 in 10.0 mi WSW 35.7 mph 47.2 mph N/A   Clear
8:32 PM 42.8 °F 31.6 °F 12.2 °F 29% 30.08 in 10.0 mi WSW 34.5 mph 49.5 mph N/A   Clear
8:52 PM 41.0 °F 29.5 °F 12.2 °F 31% 30.08 in 10.0 mi WSW 32.2 mph 51.8 mph N/A   Clear
9:32 PM 41.0 °F 29.0 °F 12.2 °F 31% 30.07 in 10.0 mi WSW 35.7 mph 48.3 mph N/A   Clear
9:52 PM 42.8 °F 31.9 °F 10.4 °F 27% 30.09 in 10.0 mi WSW 32.2 mph 50.6 mph N/A   Clear
10:12 PM 42.8 °F 30.8 °F 10.4 °F 27% 30.06 in 10.0 mi WSW 40.3 mph 52.9 mph N/A   Clear
10:32 PM 41.0 °F 28.2 °F 10.4 °F 29% 30.05 in 10.0 mi West 41.4 mph 54.1 mph N/A   Clear
10:52 PM 41.0 °F 28.2 °F 10.4 °F 29% 30.05 in 10.0 mi West 41.4 mph 50.6 mph N/A   Clear
11:12 PM 41.0 °F 28.2 °F 10.4 °F 29% 30.04 in 10.0 mi West 41.4 mph 51.8 mph N/A   Clear
11:32 PM 42.8 °F 30.7 °F 10.4 °F 27% 30.05 in 10.0 mi West 41.4 mph 54.1 mph N/A   Clear
11:52 PM 42.8 °F 31.0 °F 12.2 °F 29% 30.05 in 10.0 mi West 39.1 mph 49.5 mph N/A   Clear